BGKKBIBD

Guest
Details From BGKK - Kulusuk
To BIBD - Bildudalur
Flight Number -
Tags generated
Created
Modified
Stats Distance 372 nm / 689 km
Max Altitude 27,000 ft / 8,230 m
Waypoints 4
Social Downloads 0
Likes 0
Share VATSIM

Download

Looking for another format? Having issues loading an existing format? Contact us
Advertisement - Login to hide

Notes

Basic altitude profile: - Ascent Rate: 2500ft/min - Ascent Speed: 250kts - Cruise Altitude: 12000ft - Cruise Speed: 420kts - Descent Rate: 1500ft/min - Descent Speed: 250kts Options: - Use NATs: yes - Use PACOTS: yes - Use low airways: yes - Use high airways: yes

Route

BGKK DA 5E72 GIMLI BIBD

ID Type Via Altitude Latitude Longitude Leg Dist Tot Dist Heading (true) Name
O BGKK APT - 0 ft / 0 m 65.57361˚ -37.12361˚ - 0 nm - Kulusuk
DA NDB - 700 ft / 213 m 65.57056˚ -37.20694˚ 2 nm 2 nm 265° / 265° KULUSUK NDB
GIMLI FIX 5E72 (AWY-HI) 27,000 ft / 8,230 m 64.64000˚ -26.97833˚ 264 nm 266 nm 98° / 107° -
O BIBD APT - 0 ft / 0 m 65.64129˚ -23.54611˚ 105 nm 371 nm 54° / 57° Bildudalur

Altitude Profile

Advertisement - Login to hide

Weather


0- 5 10 15 20 25 30 35+ Temperature / ° C

Clouds and Precipitation
Forecast for 2017-12-12 12:00 UTC. Updated an hour ago

Ground ~20,000 ft ~40,000 ft Winds

BGKK

Details ICAO BGKK
Name Kulusuk
Region Greenland
Timezone America/Godthab (UTC-3.0)
Stats Elevation 114 ft / 35 m (AMSL)
Location 65.573608° -37.123608°
Runways 1
Magnetic Variation 22.321° W

METAR

BGKK 120950Z AUTO 06028G52KT 040V100 9999NDV -RA OVC036/// M00/M08 Q0975 REFZRA

Decode

TAF

Not found

Departure Runways

ID Width Length Bearing (true) Bearing (mag) Surface Threshold Offset Overrun Length
11 98 ft / 30 m 3,956 ft / 1,206 m 83.99° 106.31° Gravel 0 ft / 0 m 0 ft / 0 m
29 98 ft / 30 m 3,956 ft / 1,206 m 264.01° 286.33° Gravel 0 ft / 0 m 0 ft / 0 m

BIBD

Details ICAO BIBD (BIU)
Name Bildudalur
Region Iceland
Timezone Unknown (UTC+0.0)
Stats Elevation 25 ft / 8 m (AMSL)
Location 65.641286° -23.546109°
Runways 1
Magnetic Variation 15.319° W

METAR

BIBD 121000Z 08014KT 9999 -RA SCT020 BKN025 04/M00 Q0978 R04/55//95 RMK SOPUD BRAUT

Decode

TAF

Not found

Destination Runways

ID Width Length Bearing (true) Bearing (mag) Surface Threshold Offset Overrun Length
05 98 ft / 30 m 3,087 ft / 941 m 27.71° 43.03° Asphalt 0 ft / 0 m 0 ft / 0 m
23 98 ft / 30 m 3,087 ft / 941 m 207.72° 223.04° Asphalt 0 ft / 0 m 0 ft / 0 m

Popular Alternatives